sensor_id;sensor_type;location;lat;lon;timestamp;pressure;altitude;pressure_sealevel;temperature;humidity
36138;BME280;67787;50.074;21.904;2023-05-13T00:01:38;99715.14;;;7.06;48.51
36138;BME280;67787;50.074;21.904;2023-05-13T00:04:16;99715.27;;;7.03;48.68
36138;BME280;67787;50.074;21.904;2023-05-13T00:06:47;99710.27;;;7.01;48.92
36138;BME280;67787;50.074;21.904;2023-05-13T00:09:16;99713.59;;;6.97;48.66
36138;BME280;67787;50.074;21.904;2023-05-13T00:11:44;99714.87;;;6.93;48.76
36138;BME280;67787;50.074;21.904;2023-05-13T00:14:11;99715.98;;;6.88;48.91
36138;BME280;67787;50.074;21.904;2023-05-13T00:16:40;99713.69;;;6.85;49.01
36138;BME280;67787;50.074;21.904;2023-05-13T00:19:08;99714.02;;;6.77;49.18
36138;BME280;67787;50.074;21.904;2023-05-13T00:21:37;99710.25;;;6.71;49.26
36138;BME280;67787;50.074;21.904;2023-05-13T00:24:05;99717.71;;;6.66;49.06
36138;BME280;67787;50.074;21.904;2023-05-13T00:26:33;99720.82;;;6.64;49.26
36138;BME280;67787;50.074;21.904;2023-05-13T00:29:00;99721.27;;;6.57;49.31
36138;BME280;67787;50.074;21.904;2023-05-13T00:31:28;99714.16;;;6.54;49.28
36138;BME280;67787;50.074;21.904;2023-05-13T00:33:58;99717.92;;;6.57;49.39
36138;BME280;67787;50.074;21.904;2023-05-13T00:36:25;99719.23;;;6.52;49.67
36138;BME280;67787;50.074;21.904;2023-05-13T00:38:54;99717.80;;;6.49;49.57
36138;BME280;67787;50.074;21.904;2023-05-13T00:41:22;99716.36;;;6.45;49.64
36138;BME280;67787;50.074;21.904;2023-05-13T00:43:53;99721.54;;;6.44;49.62
36138;BME280;67787;50.074;21.904;2023-05-13T00:46:23;99719.94;;;6.44;49.82
36138;BME280;67787;50.074;21.904;2023-05-13T00:48:51;99724.45;;;6.37;49.94
36138;BME280;67787;50.074;21.904;2023-05-13T00:51:19;99721.42;;;6.34;49.93
36138;BME280;67787;50.074;21.904;2023-05-13T00:53:50;99729.57;;;6.29;49.99
36138;BME280;67787;50.074;21.904;2023-05-13T00:56:19;99729.59;;;6.29;50.03
36138;BME280;67787;50.074;21.904;2023-05-13T00:58:48;99729.70;;;6.26;50.27
36138;BME280;67787;50.074;21.904;2023-05-13T01:01:48;99729.06;;;6.25;50.15
36138;BME280;67787;50.074;21.904;2023-05-13T01:07:17;99729.16;;;6.22;50.39
36138;BME280;67787;50.074;21.904;2023-05-13T01:10:37;99730.75;;;6.18;50.47
36138;BME280;67787;50.074;21.904;2023-05-13T01:12:39;99729.23;;;6.13;50.44
36138;BME280;67787;50.074;21.904;2023-05-13T01:17:50;99728.56;;;6.08;50.45
36138;BME280;67787;50.074;21.904;2023-05-13T01:20:22;99726.36;;;6.06;50.62
36138;BME280;67787;50.074;21.904;2023-05-13T01:22:50;99730.11;;;6.05;50.77
36138;BME280;67787;50.074;21.904;2023-05-13T01:25:19;99730.09;;;6.01;50.75
36138;BME280;67787;50.074;21.904;2023-05-13T01:27:48;99728.58;;;5.98;50.82
36138;BME280;67787;50.074;21.904;2023-05-13T01:30:16;99729.96;;;5.95;50.95
36138;BME280;67787;50.074;21.904;2023-05-13T01:32:44;99730.98;;;5.92;51.01
36138;BME280;67787;50.074;21.904;2023-05-13T01:35:14;99733.86;;;5.90;50.87
36138;BME280;67787;50.074;21.904;2023-05-13T01:37:43;99734.02;;;5.91;51.10
36138;BME280;67787;50.074;21.904;2023-05-13T01:40:12;99736.13;;;5.87;51.03
36138;BME280;67787;50.074;21.904;2023-05-13T01:42:59;99733.59;;;5.84;51.04
36138;BME280;67787;50.074;21.904;2023-05-13T01:45:28;99736.95;;;5.84;51.14
36138;BME280;67787;50.074;21.904;2023-05-13T01:47:56;99734.84;;;5.84;51.16
36138;BME280;67787;50.074;21.904;2023-05-13T01:50:25;99733.89;;;5.81;51.24
36138;BME280;67787;50.074;21.904;2023-05-13T01:52:53;99734.64;;;5.75;51.44
36138;BME280;67787;50.074;21.904;2023-05-13T01:55:21;99734.99;;;5.71;51.43
36138;BME280;67787;50.074;21.904;2023-05-13T01:57:49;99735.91;;;5.66;51.49
36138;BME280;67787;50.074;21.904;2023-05-13T02:00:17;99739.80;;;5.61;51.62
36138;BME280;67787;50.074;21.904;2023-05-13T02:02:47;99735.16;;;5.59;51.54
36138;BME280;67787;50.074;21.904;2023-05-13T02:05:15;99736.44;;;5.58;51.58
36138;BME280;67787;50.074;21.904;2023-05-13T02:07:43;99733.41;;;5.58;51.67
36138;BME280;67787;50.074;21.904;2023-05-13T02:10:11;99732.77;;;5.53;51.73
36138;BME280;67787;50.074;21.904;2023-05-13T02:12:39;99733.79;;;5.50;51.54
36138;BME280;67787;50.074;21.904;2023-05-13T02:15:07;99728.92;;;5.52;51.92
36138;BME280;67787;50.074;21.904;2023-05-13T02:17:39;99731.02;;;5.48;51.98
36138;BME280;67787;50.074;21.904;2023-05-13T02:20:08;99730.83;;;5.44;51.91
36138;BME280;67787;50.074;21.904;2023-05-13T02:22:36;99731.69;;;5.40;52.01
36138;BME280;67787;50.074;21.904;2023-05-13T02:25:04;99733.70;;;5.34;51.96
36138;BME280;67787;50.074;21.904;2023-05-13T02:27:32;99735.05;;;5.27;52.06
36138;BME280;67787;50.074;21.904;2023-05-13T02:30:00;99738.82;;;5.25;52.17
36138;BME280;67787;50.074;21.904;2023-05-13T02:32:28;99743.27;;;5.24;52.15
36138;BME280;67787;50.074;21.904;2023-05-13T02:34:59;99741.17;;;5.28;52.35
36138;BME280;67787;50.074;21.904;2023-05-13T02:37:27;99748.77;;;5.27;52.37
36138;BME280;67787;50.074;21.904;2023-05-13T02:39:55;99748.99;;;5.26;52.31
36138;BME280;67787;50.074;21.904;2023-05-13T02:42:23;99746.63;;;5.28;52.50
36138;BME280;67787;50.074;21.904;2023-05-13T02:44:51;99754.09;;;5.21;52.43
36138;BME280;67787;50.074;21.904;2023-05-13T02:47:20;99749.61;;;5.18;52.52
36138;BME280;67787;50.074;21.904;2023-05-13T02:49:48;99747.89;;;5.22;52.62
36138;BME280;67787;50.074;21.904;2023-05-13T02:52:16;99751.56;;;5.23;52.67
36138;BME280;67787;50.074;21.904;2023-05-13T02:54:44;99752.91;;;5.25;52.74
36138;BME280;67787;50.074;21.904;2023-05-13T02:57:12;99757.74;;;5.22;52.83
36138;BME280;67787;50.074;21.904;2023-05-13T02:59:40;99756.34;;;5.22;52.88
36138;BME280;67787;50.074;21.904;2023-05-13T03:02:09;99757.67;;;5.29;52.85
36138;BME280;67787;50.074;21.904;2023-05-13T03:04:37;99756.89;;;5.39;52.97
36138;BME280;67787;50.074;21.904;2023-05-13T03:07:07;99760.48;;;5.46;52.99
36138;BME280;67787;50.074;21.904;2023-05-13T03:09:36;99763.80;;;5.51;53.20
36138;BME280;67787;50.074;21.904;2023-05-13T03:12:06;99761.47;;;5.52;53.28
36138;BME280;67787;50.074;21.904;2023-05-13T03:14:34;99765.34;;;5.52;53.09
36138;BME280;67787;50.074;21.904;2023-05-13T03:17:04;99764.89;;;5.54;53.41
36138;BME280;67787;50.074;21.904;2023-05-13T03:19:36;99765.41;;;5.54;53.13
36138;BME280;67787;50.074;21.904;2023-05-13T03:22:04;99767.05;;;5.58;53.45
36138;BME280;67787;50.074;21.904;2023-05-13T03:24:33;99768.83;;;5.57;53.47
36138;BME280;67787;50.074;21.904;2023-05-13T03:27:00;99773.75;;;5.62;53.66
36138;BME280;67787;50.074;21.904;2023-05-13T03:29:29;99775.38;;;5.73;53.97
36138;BME280;67787;50.074;21.904;2023-05-13T03:31:57;99775.55;;;5.82;54.01
36138;BME280;67787;50.074;21.904;2023-05-13T03:34:43;99772.91;;;5.91;53.93
36138;BME280;67787;50.074;21.904;2023-05-13T03:37:32;99771.60;;;6.02;54.13
36138;BME280;67787;50.074;21.904;2023-05-13T03:40:01;99773.64;;;6.12;54.07
36138;BME280;67787;50.074;21.904;2023-05-13T03:42:29;99774.69;;;6.25;54.38
36138;BME280;67787;50.074;21.904;2023-05-13T03:44:57;99776.52;;;6.35;54.33
36138;BME280;67787;50.074;21.904;2023-05-13T03:47:25;99776.48;;;6.44;54.44
36138;BME280;67787;50.074;21.904;2023-05-13T03:49:53;99780.36;;;6.52;54.42
36138;BME280;67787;50.074;21.904;2023-05-13T03:52:22;99778.16;;;6.62;54.62
36138;BME280;67787;50.074;21.904;2023-05-13T03:54:49;99779.07;;;6.73;54.52
36138;BME280;67787;50.074;21.904;2023-05-13T03:57:35;99776.50;;;6.87;54.43
36138;BME280;67787;50.074;21.904;2023-05-13T04:00:03;99780.45;;;7.01;54.64
36138;BME280;67787;50.074;21.904;2023-05-13T04:02:33;99782.83;;;7.14;54.69
36138;BME280;67787;50.074;21.904;2023-05-13T04:05:01;99783.42;;;7.28;54.51
36138;BME280;67787;50.074;21.904;2023-05-13T04:07:29;99784.98;;;7.40;55.06
36138;BME280;67787;50.074;21.904;2023-05-13T04:09:56;99783.81;;;7.50;54.84
36138;BME280;67787;50.074;21.904;2023-05-13T04:12:24;99787.46;;;7.58;54.69
36138;BME280;67787;50.074;21.904;2023-05-13T04:14:52;99791.02;;;7.65;54.58
36138;BME280;67787;50.074;21.904;2023-05-13T04:17:21;99789.18;;;7.70;54.55
36138;BME280;67787;50.074;21.904;2023-05-13T04:19:52;99789.45;;;7.75;54.74
36138;BME280;67787;50.074;21.904;2023-05-13T04:22:20;99789.06;;;7.79;55.18
36138;BME280;67787;50.074;21.904;2023-05-13T04:24:48;99792.70;;;7.85;55.27
36138;BME280;67787;50.074;21.904;2023-05-13T04:27:18;99796.83;;;7.90;55.34
36138;BME280;67787;50.074;21.904;2023-05-13T04:29:46;99794.59;;;7.96;55.32
36138;BME280;67787;50.074;21.904;2023-05-13T04:32:15;99796.69;;;8.04;55.30
36138;BME280;67787;50.074;21.904;2023-05-13T04:34:48;99800.48;;;8.13;55.49
36138;BME280;67787;50.074;21.904;2023-05-13T04:37:16;99803.29;;;8.24;55.49
36138;BME280;67787;50.074;21.904;2023-05-13T04:39:45;99801.84;;;8.34;55.42
36138;BME280;67787;50.074;21.904;2023-05-13T04:42:13;99797.89;;;8.47;55.40
36138;BME280;67787;50.074;21.904;2023-05-13T04:44:43;99798.38;;;8.58;55.53
36138;BME280;67787;50.074;21.904;2023-05-13T04:47:11;99797.39;;;8.70;55.68
36138;BME280;67787;50.074;21.904;2023-05-13T04:49:39;99796.27;;;8.81;55.68
36138;BME280;67787;50.074;21.904;2023-05-13T04:52:07;99798.99;;;8.93;55.67
36138;BME280;67787;50.074;21.904;2023-05-13T04:54:35;99797.20;;;9.10;56.09
36138;BME280;67787;50.074;21.904;2023-05-13T04:57:05;99800.38;;;9.26;55.85
36138;BME280;67787;50.074;21.904;2023-05-13T04:59:34;99800.76;;;9.35;55.82
36138;BME280;67787;50.074;21.904;2023-05-13T05:02:02;99798.78;;;9.42;55.78
36138;BME280;67787;50.074;21.904;2023-05-13T05:04:30;99800.64;;;9.50;55.74
36138;BME280;67787;50.074;21.904;2023-05-13T05:06:58;99804.59;;;9.59;55.92
36138;BME280;67787;50.074;21.904;2023-05-13T05:09:25;99803.62;;;9.66;55.78
36138;BME280;67787;50.074;21.904;2023-05-13T05:11:53;99803.30;;;9.72;55.94
36138;BME280;67787;50.074;21.904;2023-05-13T05:14:22;99803.62;;;9.79;56.10
36138;BME280;67787;50.074;21.904;2023-05-13T05:16:50;99805.31;;;9.87;56.03
36138;BME280;67787;50.074;21.904;2023-05-13T05:19:18;99806.23;;;9.95;56.07
36138;BME280;67787;50.074;21.904;2023-05-13T05:21:50;99805.27;;;10.05;56.33
36138;BME280;67787;50.074;21.904;2023-05-13T05:24:18;99806.11;;;10.16;56.13
36138;BME280;67787;50.074;21.904;2023-05-13T05:26:47;99802.77;;;10.27;56.10
36138;BME280;67787;50.074;21.904;2023-05-13T05:29:15;99802.29;;;10.39;56.09
36138;BME280;67787;50.074;21.904;2023-05-13T05:31:43;99804.94;;;10.51;55.97
36138;BME280;67787;50.074;21.904;2023-05-13T05:34:11;99803.23;;;10.61;56.04
36138;BME280;67787;50.074;21.904;2023-05-13T05:36:39;99806.02;;;10.71;56.11
36138;BME280;67787;50.074;21.904;2023-05-13T05:39:06;99803.46;;;10.78;56.10
36138;BME280;67787;50.074;21.904;2023-05-13T05:41:35;99808.45;;;10.83;56.06
36138;BME280;67787;50.074;21.904;2023-05-13T05:44:03;99804.29;;;10.85;56.05
36138;BME280;67787;50.074;21.904;2023-05-13T05:46:31;99808.04;;;10.84;56.21
36138;BME280;67787;50.074;21.904;2023-05-13T05:48:59;99808.83;;;10.83;56.17
36138;BME280;67787;50.074;21.904;2023-05-13T05:51:27;99807.52;;;10.84;56.24
36138;BME280;67787;50.074;21.904;2023-05-13T05:53:54;99807.17;;;10.87;56.24
36138;BME280;67787;50.074;21.904;2023-05-13T05:56:23;99810.14;;;10.91;56.18
36138;BME280;67787;50.074;21.904;2023-05-13T05:58:51;99811.88;;;10.94;56.28
36138;BME280;67787;50.074;21.904;2023-05-13T06:01:19;99809.09;;;10.99;56.30
36138;BME280;67787;50.074;21.904;2023-05-13T06:03:47;99808.76;;;11.04;56.33
36138;BME280;67787;50.074;21.904;2023-05-13T06:06:14;99814.05;;;11.11;56.28
36138;BME280;67787;50.074;21.904;2023-05-13T06:08:42;99815.19;;;11.15;56.45
36138;BME280;67787;50.074;21.904;2023-05-13T06:11:11;99812.89;;;11.21;56.41
36138;BME280;67787;50.074;21.904;2023-05-13T06:13:38;99813.08;;;11.26;56.36
36138;BME280;67787;50.074;21.904;2023-05-13T06:16:06;99814.08;;;11.33;56.52
36138;BME280;67787;50.074;21.904;2023-05-13T06:18:34;99816.92;;;11.39;56.47
36138;BME280;67787;50.074;21.904;2023-05-13T06:21:02;99818.77;;;11.45;56.53
36138;BME280;67787;50.074;21.904;2023-05-13T06:23:30;99817.15;;;11.55;56.51
36138;BME280;67787;50.074;21.904;2023-05-13T06:25:59;99818.33;;;11.64;56.57
36138;BME280;67787;50.074;21.904;2023-05-13T06:28:26;99822.48;;;11.73;56.72
36138;BME280;67787;50.074;21.904;2023-05-13T06:30:54;99820.42;;;11.81;56.59
36138;BME280;67787;50.074;21.904;2023-05-13T06:33:23;99818.16;;;11.88;56.61
36138;BME280;67787;50.074;21.904;2023-05-13T06:35:51;99813.49;;;11.94;56.59
36138;BME280;67787;50.074;21.904;2023-05-13T06:38:19;99810.52;;;12.02;56.60
36138;BME280;67787;50.074;21.904;2023-05-13T06:40:48;99806.73;;;12.14;56.81
36138;BME280;67787;50.074;21.904;2023-05-13T06:43:16;99808.49;;;12.27;56.62
36138;BME280;67787;50.074;21.904;2023-05-13T06:45:44;99802.88;;;12.39;56.66
36138;BME280;67787;50.074;21.904;2023-05-13T06:48:12;99803.48;;;12.54;56.55
36138;BME280;67787;50.074;21.904;2023-05-13T06:50:40;99803.41;;;12.68;56.52
36138;BME280;67787;50.074;21.904;2023-05-13T06:53:08;99803.61;;;12.83;56.53
36138;BME280;67787;50.074;21.904;2023-05-13T06:55:40;99802.93;;;12.95;56.47
36138;BME280;67787;50.074;21.904;2023-05-13T06:58:09;99796.91;;;13.03;56.49
36138;BME280;67787;50.074;21.904;2023-05-13T07:00:38;99794.61;;;13.10;56.43
36138;BME280;67787;50.074;21.904;2023-05-13T07:03:06;99792.04;;;13.23;56.44
36138;BME280;67787;50.074;21.904;2023-05-13T07:05:35;99791.00;;;13.35;56.24
36138;BME280;67787;50.074;21.904;2023-05-13T07:08:04;99792.13;;;13.44;55.81
36138;BME280;67787;50.074;21.904;2023-05-13T07:10:35;99793.33;;;13.55;55.93
36138;BME280;67787;50.074;21.904;2023-05-13T07:13:03;99790.54;;;13.62;55.88
36138;BME280;67787;50.074;21.904;2023-05-13T07:15:31;99788.91;;;13.69;55.94
36138;BME280;67787;50.074;21.904;2023-05-13T07:17:59;99785.30;;;13.75;55.77
36138;BME280;67787;50.074;21.904;2023-05-13T07:20:27;99787.01;;;13.83;55.75
36138;BME280;67787;50.074;21.904;2023-05-13T07:22:55;99781.98;;;13.93;55.70
36138;BME280;67787;50.074;21.904;2023-05-13T07:25:24;99780.77;;;13.97;55.53
36138;BME280;67787;50.074;21.904;2023-05-13T07:27:51;99780.67;;;14.04;55.50
36138;BME280;67787;50.074;21.904;2023-05-13T07:30:19;99782.04;;;14.09;55.49
36138;BME280;67787;50.074;21.904;2023-05-13T07:32:48;99782.84;;;14.15;55.28
36138;BME280;67787;50.074;21.904;2023-05-13T07:35:19;99781.89;;;14.21;55.05
36138;BME280;67787;50.074;21.904;2023-05-13T07:37:47;99787.89;;;14.24;55.06
36138;BME280;67787;50.074;21.904;2023-05-13T07:40:15;99787.75;;;14.28;54.94
36138;BME280;67787;50.074;21.904;2023-05-13T07:42:44;99784.88;;;14.33;54.85
36138;BME280;67787;50.074;21.904;2023-05-13T07:45:12;99782.08;;;14.39;54.63
36138;BME280;67787;50.074;21.904;2023-05-13T07:47:40;99780.54;;;14.47;54.74
36138;BME280;67787;50.074;21.904;2023-05-13T07:50:11;99782.80;;;14.55;54.81
36138;BME280;67787;50.074;21.904;2023-05-13T07:52:39;99781.44;;;14.62;54.74
36138;BME280;67787;50.074;21.904;2023-05-13T07:55:07;99776.98;;;14.64;54.52
36138;BME280;67787;50.074;21.904;2023-05-13T07:57:35;99775.28;;;14.74;54.41
36138;BME280;67787;50.074;21.904;2023-05-13T08:00:04;99766.80;;;14.82;54.03
36138;BME280;67787;50.074;21.904;2023-05-13T08:02:32;99767.80;;;14.92;54.30
36138;BME280;67787;50.074;21.904;2023-05-13T08:05:01;99762.78;;;14.97;54.22
36138;BME280;67787;50.074;21.904;2023-05-13T08:07:29;99759.02;;;15.04;54.21
36138;BME280;67787;50.074;21.904;2023-05-13T08:09:57;99760.55;;;15.09;53.78
36138;BME280;67787;50.074;21.904;2023-05-13T08:12:25;99763.17;;;15.17;54.04
36138;BME280;67787;50.074;21.904;2023-05-13T08:18:01;99771.64;;;15.31;53.30
36138;BME280;67787;50.074;21.904;2023-05-13T08:20:28;99772.69;;;15.29;52.66
36138;BME280;67787;50.074;21.904;2023-05-13T08:22:57;99773.02;;;15.30;52.76
36138;BME280;67787;50.074;21.904;2023-05-13T08:25:25;99764.48;;;15.31;52.93
36138;BME280;67787;50.074;21.904;2023-05-13T08:27:53;99771.29;;;15.36;52.76
36138;BME280;67787;50.074;21.904;2023-05-13T08:30:21;99765.91;;;15.41;52.26
36138;BME280;67787;50.074;21.904;2023-05-13T08:32:49;99771.09;;;15.40;51.96
36138;BME280;67787;50.074;21.904;2023-05-13T08:35:17;99771.90;;;15.39;52.00
36138;BME280;67787;50.074;21.904;2023-05-13T08:37:46;99775.91;;;15.36;51.55
36138;BME280;67787;50.074;21.904;2023-05-13T08:40:13;99769.52;;;15.33;51.92
36138;BME280;67787;50.074;21.904;2023-05-13T08:42:44;99764.45;;;15.36;51.63
36138;BME280;67787;50.074;21.904;2023-05-13T08:45:15;99754.55;;;15.40;51.29
36138;BME280;67787;50.074;21.904;2023-05-13T08:47:54;99762.41;;;15.42;51.43
36138;BME280;67787;50.074;21.904;2023-05-13T08:50:23;99762.05;;;15.48;51.61
36138;BME280;67787;50.074;21.904;2023-05-13T08:52:52;99759.80;;;15.56;51.49
36138;BME280;67787;50.074;21.904;2023-05-13T08:55:21;99761.27;;;15.60;50.57
36138;BME280;67787;50.074;21.904;2023-05-13T08:57:51;99759.34;;;15.62;50.49
36138;BME280;67787;50.074;21.904;2023-05-13T09:00:19;99758.06;;;15.62;50.68
36138;BME280;67787;50.074;21.904;2023-05-13T09:02:49;99753.00;;;15.58;50.56
36138;BME280;67787;50.074;21.904;2023-05-13T09:05:17;99752.14;;;15.54;50.50
36138;BME280;67787;50.074;21.904;2023-05-13T09:07:47;99753.73;;;15.54;50.40
36138;BME280;67787;50.074;21.904;2023-05-13T09:10:16;99744.38;;;15.57;50.20
36138;BME280;67787;50.074;21.904;2023-05-13T09:12:49;99744.96;;;15.65;49.63
36138;BME280;67787;50.074;21.904;2023-05-13T09:15:20;99744.13;;;15.73;49.88
36138;BME280;67787;50.074;21.904;2023-05-13T09:17:52;99737.66;;;15.71;49.56
36138;BME280;67787;50.074;21.904;2023-05-13T09:20:21;99733.73;;;15.67;49.47
36138;BME280;67787;50.074;21.904;2023-05-13T09:22:59;99732.75;;;15.66;48.93
36138;BME280;67787;50.074;21.904;2023-05-13T09:25:29;99737.11;;;15.65;48.63
36138;BME280;67787;50.074;21.904;2023-05-13T09:27:59;99735.86;;;15.67;48.96
36138;BME280;67787;50.074;21.904;2023-05-13T09:30:31;99733.16;;;15.69;48.83
36138;BME280;67787;50.074;21.904;2023-05-13T09:33:13;99734.98;;;15.71;48.92
36138;BME280;67787;50.074;21.904;2023-05-13T09:35:49;99725.09;;;15.72;48.56
36138;BME280;67787;50.074;21.904;2023-05-13T09:38:25;99726.84;;;15.72;48.80
36138;BME280;67787;50.074;21.904;2023-05-13T09:40:56;99729.61;;;15.77;48.21
36138;BME280;67787;50.074;21.904;2023-05-13T09:43:26;99726.80;;;15.82;47.96
36138;BME280;67787;50.074;21.904;2023-05-13T09:45:55;99725.27;;;15.85;48.08
36138;BME280;67787;50.074;21.904;2023-05-13T09:48:25;99729.71;;;15.94;47.77
36138;BME280;67787;50.074;21.904;2023-05-13T09:50:54;99728.59;;;16.05;47.51
36138;BME280;67787;50.074;21.904;2023-05-13T09:53:26;99736.27;;;16.22;48.13
36138;BME280;67787;50.074;21.904;2023-05-13T09:55:56;99730.52;;;16.50;47.86
36138;BME280;67787;50.074;21.904;2023-05-13T09:58:25;99728.65;;;16.69;47.97
36138;BME280;67787;50.074;21.904;2023-05-13T10:00:55;99726.71;;;16.75;47.87
36138;BME280;67787;50.074;21.904;2023-05-13T10:03:24;99729.77;;;16.81;47.32
36138;BME280;67787;50.074;21.904;2023-05-13T10:05:52;99724.48;;;16.82;47.42
36138;BME280;67787;50.074;21.904;2023-05-13T10:08:22;99726.06;;;16.82;47.51
36138;BME280;67787;50.074;21.904;2023-05-13T10:10:54;99722.08;;;16.91;47.49
36138;BME280;67787;50.074;21.904;2023-05-13T10:13:23;99719.08;;;16.92;47.28
36138;BME280;67787;50.074;21.904;2023-05-13T10:15:53;99718.02;;;16.78;46.89
36138;BME280;67787;50.074;21.904;2023-05-13T10:18:22;99717.02;;;16.57;47.05
36138;BME280;67787;50.074;21.904;2023-05-13T10:20:51;99715.36;;;16.45;46.81
36138;BME280;67787;50.074;21.904;2023-05-13T10:23:22;99716.52;;;16.42;46.95
36138;BME280;67787;50.074;21.904;2023-05-13T10:25:53;99717.29;;;16.37;47.10
36138;BME280;67787;50.074;21.904;2023-05-13T10:28:22;99713.80;;;16.26;46.77
36138;BME280;67787;50.074;21.904;2023-05-13T10:30:51;99713.75;;;16.18;46.63
36138;BME280;67787;50.074;21.904;2023-05-13T10:33:19;99711.23;;;16.18;46.89
36138;BME280;67787;50.074;21.904;2023-05-13T10:36:21;99708.22;;;16.19;46.74
36138;BME280;67787;50.074;21.904;2023-05-13T10:44:24;99709.63;;;16.03;46.32
36138;BME280;67787;50.074;21.904;2023-05-13T10:46:55;99709.30;;;16.05;46.40
36138;BME280;67787;50.074;21.904;2023-05-13T10:49:23;99712.91;;;16.11;46.36
36138;BME280;67787;50.074;21.904;2023-05-13T10:52:03;99716.32;;;16.15;46.14
36138;BME280;67787;50.074;21.904;2023-05-13T10:54:36;99715.13;;;16.23;46.12
36138;BME280;67787;50.074;21.904;2023-05-13T10:57:07;99716.36;;;16.25;46.10
36138;BME280;67787;50.074;21.904;2023-05-13T10:59:35;99718.18;;;16.27;46.15
36138;BME280;67787;50.074;21.904;2023-05-13T11:02:20;99715.36;;;16.30;46.12
36138;BME280;67787;50.074;21.904;2023-05-13T11:04:59;99715.36;;;16.38;45.93
36138;BME280;67787;50.074;21.904;2023-05-13T11:07:28;99719.63;;;16.52;45.97
36138;BME280;67787;50.074;21.904;2023-05-13T11:09:58;99721.70;;;16.61;45.88
36138;BME280;67787;50.074;21.904;2023-05-13T11:12:26;99721.52;;;16.63;45.82
36138;BME280;67787;50.074;21.904;2023-05-13T11:14:57;99724.52;;;16.65;45.94
36138;BME280;67787;50.074;21.904;2023-05-13T11:17:25;99724.55;;;16.71;45.83
36138;BME280;67787;50.074;21.904;2023-05-13T11:19:55;99724.40;;;16.85;45.91
36138;BME280;67787;50.074;21.904;2023-05-13T11:22:22;99725.36;;;17.07;45.72
36138;BME280;67787;50.074;21.904;2023-05-13T11:25:08;99721.49;;;17.32;45.45
36138;BME280;67787;50.074;21.904;2023-05-13T11:27:40;99724.77;;;17.57;45.52
36138;BME280;67787;50.074;21.904;2023-05-13T11:30:24;99728.34;;;17.71;45.48
36138;BME280;67787;50.074;21.904;2023-05-13T11:32:57;99725.75;;;17.84;45.34
36138;BME280;67787;50.074;21.904;2023-05-13T11:35:26;99725.84;;;17.93;45.46
36138;BME280;67787;50.074;21.904;2023-05-13T11:37:55;99718.16;;;18.05;45.55
36138;BME280;67787;50.074;21.904;2023-05-13T11:42:58;99723.35;;;18.12;45.20
36138;BME280;67787;50.074;21.904;2023-05-13T11:45:28;99726.32;;;18.07;45.24
36138;BME280;67787;50.074;21.904;2023-05-13T11:47:56;99729.11;;;17.98;45.06
36138;BME280;67787;50.074;21.904;2023-05-13T11:50:28;99725.77;;;17.96;45.06
36138;BME280;67787;50.074;21.904;2023-05-13T11:52:59;99725.90;;;17.86;44.97
36138;BME280;67787;50.074;21.904;2023-05-13T11:55:32;99727.52;;;17.75;44.89
36138;BME280;67787;50.074;21.904;2023-05-13T11:58:03;99728.09;;;17.74;44.99
36138;BME280;67787;50.074;21.904;2023-05-13T12:00:32;99725.76;;;17.76;44.55
36138;BME280;67787;50.074;21.904;2023-05-13T12:03:08;99728.02;;;17.73;44.61
36138;BME280;67787;50.074;21.904;2023-05-13T12:05:38;99729.31;;;17.69;44.70
36138;BME280;67787;50.074;21.904;2023-05-13T12:08:09;99723.48;;;17.70;44.31
36138;BME280;67787;50.074;21.904;2023-05-13T12:10:43;99716.93;;;17.85;44.68
36138;BME280;67787;50.074;21.904;2023-05-13T12:13:12;99715.37;;;18.05;44.61
36138;BME280;67787;50.074;21.904;2023-05-13T12:15:41;99715.08;;;18.26;44.70
36138;BME280;67787;50.074;21.904;2023-05-13T12:18:09;99712.30;;;18.38;44.55
36138;BME280;67787;50.074;21.904;2023-05-13T12:20:37;99709.75;;;18.39;44.46
36138;BME280;67787;50.074;21.904;2023-05-13T12:23:05;99717.05;;;18.32;44.47
36138;BME280;67787;50.074;21.904;2023-05-13T12:31:14;99723.05;;;18.00;44.10
36138;BME280;67787;50.074;21.904;2023-05-13T12:33:43;99721.95;;;18.02;44.19
36138;BME280;67787;50.074;21.904;2023-05-13T12:36:25;99720.86;;;17.98;43.84
36138;BME280;67787;50.074;21.904;2023-05-13T12:39:05;99720.63;;;18.05;44.01
36138;BME280;67787;50.074;21.904;2023-05-13T12:41:40;99719.23;;;18.07;43.88
36138;BME280;67787;50.074;21.904;2023-05-13T12:44:14;99729.02;;;18.00;43.75
36138;BME280;67787;50.074;21.904;2023-05-13T12:46:49;99724.40;;;17.87;43.62
36138;BME280;67787;50.074;21.904;2023-05-13T12:49:18;99722.22;;;17.78;43.82
36138;BME280;67787;50.074;21.904;2023-05-13T12:51:46;99721.09;;;17.72;43.85
36138;BME280;67787;50.074;21.904;2023-05-13T12:54:14;99716.88;;;17.64;43.69
36138;BME280;67787;50.074;21.904;2023-05-13T12:56:43;99717.98;;;17.55;43.80
36138;BME280;67787;50.074;21.904;2023-05-13T12:59:11;99714.92;;;17.57;43.87
36138;BME280;67787;50.074;21.904;2023-05-13T13:01:41;99713.73;;;17.73;43.84
36138;BME280;67787;50.074;21.904;2023-05-13T13:04:09;99714.25;;;17.94;43.86
36138;BME280;67787;50.074;21.904;2023-05-13T13:06:38;99708.88;;;18.19;43.73
36138;BME280;67787;50.074;21.904;2023-05-13T13:09:06;99707.08;;;18.46;43.86
36138;BME280;67787;50.074;21.904;2023-05-13T13:11:34;99710.46;;;18.65;43.59
36138;BME280;67787;50.074;21.904;2023-05-13T13:14:02;99705.63;;;18.75;43.51
36138;BME280;67787;50.074;21.904;2023-05-13T13:16:29;99700.89;;;18.79;43.52
36138;BME280;67787;50.074;21.904;2023-05-13T13:18:58;99699.48;;;18.81;43.50
36138;BME280;67787;50.074;21.904;2023-05-13T13:21:28;99692.96;;;18.77;43.49
36138;BME280;67787;50.074;21.904;2023-05-13T13:23:56;99691.27;;;18.61;43.32
36138;BME280;67787;50.074;21.904;2023-05-13T13:26:24;99690.48;;;18.39;43.23
36138;BME280;67787;50.074;21.904;2023-05-13T13:28:52;99689.83;;;18.19;43.20
36138;BME280;67787;50.074;21.904;2023-05-13T13:31:19;99690.13;;;18.05;43.12